Ariadne — SVST — position and weather

sailwx.info

Track history (hours):
 
Tides and Currents Weather Stations Pressure Air Temp Water Temp Dewpoint Dewpoint Depression Visibility Wind Speed Wind Dir Waves Ship Positions

Ariadne

Last reported at 2018-Jun-16 19:45 UTC. Time now 2018-Jun-18 00:19 UTC.
Position N 38°22' E 012°58'.

Length 196 m; draft 6.9 m.

Type: Passenger vessel. MMSI: 240580000.

Date/timePositionNaut miles runAvg speedWind from/ knotsBaromVisibWave heightAir tempDewpointWater temp
2018-Jun-16 19:45N 38°22' E 012°58'518.2
2018-Jun-16 19:29N 38°20' E 013°04'918.1
2018-Jun-16 18:59N 38°19' E 013°15'817.1
2018-Jun-16 18:30N 38°15' E 013°24'715.0
2018-Jun-16 18:00N 38°07' E 013°23'1 2.5
2018-Jun-16 17:30N 38°08' E 013°22'0 0.0
2018-Jun-16 17:00N 38°08' E 013°22'0 0.0
2018-Jun-16 16:30N 38°08' E 013°22'0 0.0
2018-Jun-16 16:00N 38°08' E 013°22'0 0.0
2018-Jun-16 15:30N 38°08' E 013°22'0 0.0
2018-Jun-16 15:00N 38°08' E 013°22'0 0.0
2018-Jun-16 14:30N 38°08' E 013°22'0 0.0
2018-Jun-16 14:00N 38°08' E 013°22'0 0.0
2018-Jun-16 13:30N 38°08' E 013°22'0 0.0
2018-Jun-16 13:00N 38°08' E 013°22'0 0.0
2018-Jun-16 12:30N 38°08' E 013°22'0 0.0
2018-Jun-16 12:00N 38°08' E 013°22'0 0.0
2018-Jun-16 11:30N 38°08' E 013°22'0 0.0
2018-Jun-16 11:00N 38°08' E 013°22'0 0.0
2018-Jun-16 10:30N 38°08' E 013°22'0 0.0
2018-Jun-16 10:00N 38°08' E 013°22'0 0.0
2018-Jun-16 09:30N 38°08' E 013°22'0 0.0
2018-Jun-16 09:00N 38°08' E 013°22'0 0.0
2018-Jun-16 08:30N 38°08' E 013°22'0 0.0
2018-Jun-16 08:00N 38°08' E 013°22'0 0.0
2018-Jun-16 07:30N 38°08' E 013°22'0 0.0
2018-Jun-16 07:00N 38°08' E 013°22'0 0.0
2018-Jun-16 06:30N 38°08' E 013°22'1 2.2
2018-Jun-16 06:00N 38°07' E 013°23'612.9
2018-Jun-16 05:30N 38°14' E 013°24'917.7
2018-Jun-16 05:00N 38°20' E 013°16'1019.2
2018-Jun-16 04:30N 38°23' E 013°04'918.8
2018-Jun-16 04:00N 38°26' E 012°53'130 4.0
2018-Jun-14 19:37N 40°30' E 013°41'320.3
2018-Jun-14 19:30N 40°31' E 013°44'1020.5
2018-Jun-14 19:00N 40°35' E 013°56'1020.7
2018-Jun-14 18:30N 40°41' E 014°07'1020.1
2018-Jun-14 18:00N 40°49' E 014°16'2 4.0
2018-Jun-14 17:30N 40°50' E 014°16'0 0.0
2018-Jun-14 17:00N 40°50' E 014°16'0 0.0
2018-Jun-14 16:30N 40°50' E 014°16'0 0.0
2018-Jun-14 16:00N 40°50' E 014°16'0 0.0
2018-Jun-14 15:30N 40°50' E 014°16'0 0.0
2018-Jun-14 15:00N 40°50' E 014°16'0 0.0
2018-Jun-14 14:30N 40°50' E 014°16'0 0.0
2018-Jun-14 14:00N 40°50' E 014°16'0 0.0
2018-Jun-14 13:30N 40°50' E 014°16'0 0.0
2018-Jun-14 13:00N 40°50' E 014°16'0 0.0
2018-Jun-14 12:30N 40°50' E 014°16'0 0.0
2018-Jun-14 12:00N 40°50' E 014°16'0 0.0
2018-Jun-14 11:30N 40°50' E 014°16'0 0.0
2018-Jun-14 11:00N 40°50' E 014°16'0 0.0
2018-Jun-14 10:30N 40°50' E 014°16'0 0.0
2018-Jun-14 10:00N 40°50' E 014°16'0 0.0
2018-Jun-14 09:30N 40°50' E 014°16'0 0.0
2018-Jun-14 09:00N 40°50' E 014°16'0 0.0
2018-Jun-14 08:30N 40°50' E 014°16'0 0.0
2018-Jun-14 08:00N 40°50' E 014°16'0 0.0
2018-Jun-14 07:30N 40°50' E 014°16'1 1.4
2018-Jun-14 07:00N 40°50' E 014°16'816.9
2018-Jun-14 06:31N 40°43' E 014°10'1020.5
2018-Jun-14 06:00N 40°37' E 013°60'1020.6
2018-Jun-14 05:30N 40°32' E 013°47'1120.4
2018-Jun-14 04:58N 40°27' E 013°34'4 0.1
2018-Jun-12 19:38N 40°29' E 013°39'320.1
2018-Jun-12 19:29N 40°31' E 013°43'1020.2
2018-Jun-12 19:00N 40°35' E 013°54'1020.0
2018-Jun-12 18:30N 40°40' E 014°06'1019.8
2018-Jun-12 18:01N 40°47' E 014°15'4 7.4
2018-Jun-12 17:29N 40°50' E 014°16'0 0.0
2018-Jun-12 17:01N 40°50' E 014°16'0 0.0
2018-Jun-12 16:31N 40°50' E 014°16'0 0.0
2018-Jun-12 16:00N 40°50' E 014°16'0 0.0
2018-Jun-12 15:30N 40°50' E 014°16'0 0.0
2018-Jun-12 15:00N 40°50' E 014°16'0 0.0
2018-Jun-12 14:31N 40°50' E 014°16'0 0.0
2018-Jun-12 14:01N 40°50' E 014°16'0 0.0
2018-Jun-12 13:31N 40°50' E 014°16'0 0.0
2018-Jun-12 13:01N 40°50' E 014°16'0 0.0
2018-Jun-12 12:30N 40°50' E 014°16'0 0.0
2018-Jun-12 12:01N 40°50' E 014°16'0 0.0
2018-Jun-12 11:31N 40°50' E 014°16'0 0.0
2018-Jun-12 11:00N 40°50' E 014°16'0 0.0
2018-Jun-12 10:31N 40°50' E 014°16'0 0.0
2018-Jun-12 10:00N 40°50' E 014°16'0 0.0
2018-Jun-12 09:31N 40°50' E 014°16'0 0.0
2018-Jun-12 09:00N 40°50' E 014°16'0 0.0
2018-Jun-12 08:31N 40°50' E 014°16'0 0.0
2018-Jun-12 08:00N 40°50' E 014°16'0 0.0
2018-Jun-12 07:31N 40°50' E 014°16'0 0.3
2018-Jun-12 07:01N 40°50' E 014°16'713.9
2018-Jun-12 06:30N 40°44' E 014°12'1020.1
2018-Jun-12 06:00N 40°38' E 014°02'1019.9
2018-Jun-12 05:30N 40°33' E 013°50'1120.1
2018-Jun-12 04:59N 40°29' E 013°37'1020.3
2018-Jun-12 04:29N 40°24' E 013°26'1020.3
2018-Jun-12 04:00N 40°20' E 013°14'1020.4
2018-Jun-12 03:30N 40°16' E 013°02'2520.3
2018-Jun-12 02:16N 40°05' E 012°32'  
2018-Jun-09 20:17N 38°24' E 012°45'518.7
2018-Jun-09 20:00N 38°23' E 012°51'918.7
2018-Jun-09 19:30N 38°21' E 013°03'918.5
2018-Jun-09 19:00N 38°19' E 013°14'917.2
2018-Jun-09 18:30N 38°14' E 013°23'713.9
2018-Jun-09 18:01N 38°07' E 013°23'1 2.1
2018-Jun-09 17:30N 38°08' E 013°22'0 0.0
2018-Jun-09 17:01N 38°08' E 013°22'0 0.0
2018-Jun-09 16:31N 38°08' E 013°22'0 0.0
2018-Jun-09 16:00N 38°08' E 013°22'0 0.0
2018-Jun-09 14:59N 38°08' E 013°22'0 0.0
2018-Jun-09 14:31N 38°08' E 013°22'0 0.0
2018-Jun-09 14:01N 38°08' E 013°22'0 0.0
2018-Jun-09 13:31N 38°08' E 013°22'0 0.0
2018-Jun-09 13:00N 38°08' E 013°22'0 0.0
2018-Jun-09 12:30N 38°08' E 013°22'0 0.0
2018-Jun-09 12:01N 38°08' E 013°22'0 0.0
2018-Jun-09 11:31N 38°08' E 013°22'0 0.0
2018-Jun-09 11:01N 38°08' E 013°22'0 0.0
2018-Jun-09 10:30N 38°08' E 013°22'0 0.0
2018-Jun-09 10:01N 38°08' E 013°22'0 0.0
2018-Jun-09 09:31N 38°08' E 013°22'0 0.0
2018-Jun-09 09:01N 38°08' E 013°22'0 0.0
2018-Jun-09 08:30N 38°08' E 013°22'0 0.0
2018-Jun-09 08:00N 38°08' E 013°22'0 0.0
2018-Jun-09 07:31N 38°08' E 013°22'0 0.0
2018-Jun-09 07:01N 38°08' E 013°22'0 0.0
2018-Jun-09 06:31N 38°08' E 013°22'0 0.3
2018-Jun-09 06:01N 38°08' E 013°22'3 6.2
2018-Jun-09 05:30N 38°10' E 013°24'917.6
2018-Jun-09 05:00N 38°19' E 013°20'918.6
2018-Jun-09 04:30N 38°22' E 013°09'918.7
2018-Jun-09 04:00N 38°24' E 012°58'127 3.9
2018-Jun-07 19:33N 40°28' E 013°35'120.1
2018-Jun-07 19:30N 40°28' E 013°36'1020.0
2018-Jun-07 19:00N 40°32' E 013°48'1019.9
2018-Jun-07 18:31N 40°37' E 013°59'1020.1
2018-Jun-07 18:00N 40°43' E 014°10'917.7
2018-Jun-07 17:31N 40°50' E 014°17'1 1.8
2018-Jun-07 17:00N 40°50' E 014°16'0 0.0
2018-Jun-07 16:31N 40°50' E 014°16'0 0.0
2018-Jun-07 16:00N 40°50' E 014°16'0 0.0
2018-Jun-07 15:30N 40°50' E 014°16'0 0.0
2018-Jun-07 15:00N 40°50' E 014°16'0 0.0
2018-Jun-07 14:30N 40°50' E 014°16'0 0.0
2018-Jun-07 14:00N 40°50' E 014°16'0 0.0
2018-Jun-07 13:30N 40°50' E 014°16'0 0.0
2018-Jun-07 13:00N 40°50' E 014°16'0 0.0
2018-Jun-07 12:30N 40°50' E 014°16'0 0.0
2018-Jun-07 12:00N 40°50' E 014°16'0 0.0
2018-Jun-07 11:30N 40°50' E 014°16'0 0.0
2018-Jun-07 11:00N 40°50' E 014°16'0 0.0
2018-Jun-07 10:30N 40°50' E 014°16'0 0.0
2018-Jun-07 10:00N 40°50' E 014°16'0 0.0
2018-Jun-07 09:31N 40°50' E 014°16'0 0.0
2018-Jun-07 09:00N 40°50' E 014°16'0 0.0
2018-Jun-07 08:31N 40°50' E 014°16'0 0.0
2018-Jun-07 08:00N 40°50' E 014°16'0 0.0
2018-Jun-07 07:30N 40°50' E 014°16'3 5.5
2018-Jun-07 07:01N 40°48' E 014°17'1019.9
2018-Jun-07 06:30N 40°40' E 014°08'1019.5
2018-Jun-07 06:00N 40°36' E 013°57'1019.7
2018-Jun-07 05:31N 40°31' E 013°45'1019.7
2018-Jun-07 05:01N 40°27' E 013°33'3019.6
2018-Jun-07 03:28N 40°15' E 012°57'3419.5
2018-Jun-07 01:43N 39°60' E 012°17'  
Track history (hours):
 
Tides and Currents Weather Stations Pressure Air Temp Water Temp Dewpoint Dewpoint Depression Visibility Wind Speed Wind Dir Waves Ship Positions

Ariadne

Last reported at 2018-Jun-16 19:45 UTC. Time now 2018-Jun-18 00:19 UTC.
Position N 38°22' E 012°58'.

Length 196 m; draft 6.9 m.

Type: Passenger vessel. MMSI: 240580000.

Date/timePositionNaut miles runAvg speedWind from/ knotsBaromVisibWave heightAir tempDewpointWater temp
2018-Jun-16 19:45N 38°22' E 012°58'518.2
2018-Jun-16 19:29N 38°20' E 013°04'918.1
2018-Jun-16 18:59N 38°19' E 013°15'817.1
2018-Jun-16 18:30N 38°15' E 013°24'715.0
2018-Jun-16 18:00N 38°07' E 013°23'1 2.5
2018-Jun-16 17:30N 38°08' E 013°22'0 0.0
2018-Jun-16 17:00N 38°08' E 013°22'0 0.0
2018-Jun-16 16:30N 38°08' E 013°22'0 0.0
2018-Jun-16 16:00N 38°08' E 013°22'0 0.0
2018-Jun-16 15:30N 38°08' E 013°22'0 0.0
2018-Jun-16 15:00N 38°08' E 013°22'0 0.0
2018-Jun-16 14:30N 38°08' E 013°22'0 0.0
2018-Jun-16 14:00N 38°08' E 013°22'0 0.0
2018-Jun-16 13:30N 38°08' E 013°22'0 0.0
2018-Jun-16 13:00N 38°08' E 013°22'0 0.0
2018-Jun-16 12:30N 38°08' E 013°22'0 0.0
2018-Jun-16 12:00N 38°08' E 013°22'0 0.0
2018-Jun-16 11:30N 38°08' E 013°22'0 0.0
2018-Jun-16 11:00N 38°08' E 013°22'0 0.0
2018-Jun-16 10:30N 38°08' E 013°22'0 0.0
2018-Jun-16 10:00N 38°08' E 013°22'0 0.0
2018-Jun-16 09:30N 38°08' E 013°22'0 0.0
2018-Jun-16 09:00N 38°08' E 013°22'0 0.0
2018-Jun-16 08:30N 38°08' E 013°22'0 0.0
2018-Jun-16 08:00N 38°08' E 013°22'0 0.0
2018-Jun-16 07:30N 38°08' E 013°22'0 0.0
2018-Jun-16 07:00N 38°08' E 013°22'0 0.0
2018-Jun-16 06:30N 38°08' E 013°22'1 2.2
2018-Jun-16 06:00N 38°07' E 013°23'612.9
2018-Jun-16 05:30N 38°14' E 013°24'917.7
2018-Jun-16 05:00N 38°20' E 013°16'1019.2
2018-Jun-16 04:30N 38°23' E 013°04'918.8
2018-Jun-16 04:00N 38°26' E 012°53'130 4.0
2018-Jun-14 19:37N 40°30' E 013°41'320.3
2018-Jun-14 19:30N 40°31' E 013°44'1020.5
2018-Jun-14 19:00N 40°35' E 013°56'1020.7
2018-Jun-14 18:30N 40°41' E 014°07'1020.1
2018-Jun-14 18:00N 40°49' E 014°16'2 4.0
2018-Jun-14 17:30N 40°50' E 014°16'0 0.0
2018-Jun-14 17:00N 40°50' E 014°16'0 0.0
2018-Jun-14 16:30N 40°50' E 014°16'0 0.0
2018-Jun-14 16:00N 40°50' E 014°16'0 0.0
2018-Jun-14 15:30N 40°50' E 014°16'0 0.0
2018-Jun-14 15:00N 40°50' E 014°16'0 0.0
2018-Jun-14 14:30N 40°50' E 014°16'0 0.0
2018-Jun-14 14:00N 40°50' E 014°16'0 0.0
2018-Jun-14 13:30N 40°50' E 014°16'0 0.0
2018-Jun-14 13:00N 40°50' E 014°16'0 0.0
2018-Jun-14 12:30N 40°50' E 014°16'0 0.0
2018-Jun-14 12:00N 40°50' E 014°16'0 0.0
2018-Jun-14 11:30N 40°50' E 014°16'0 0.0
2018-Jun-14 11:00N 40°50' E 014°16'0 0.0
2018-Jun-14 10:30N 40°50' E 014°16'0 0.0
2018-Jun-14 10:00N 40°50' E 014°16'0 0.0
2018-Jun-14 09:30N 40°50' E 014°16'0 0.0
2018-Jun-14 09:00N 40°50' E 014°16'0 0.0
2018-Jun-14 08:30N 40°50' E 014°16'0 0.0
2018-Jun-14 08:00N 40°50' E 014°16'0 0.0
2018-Jun-14 07:30N 40°50' E 014°16'1 1.4
2018-Jun-14 07:00N 40°50' E 014°16'816.9
2018-Jun-14 06:31N 40°43' E 014°10'1020.5
2018-Jun-14 06:00N 40°37' E 013°60'1020.6
2018-Jun-14 05:30N 40°32' E 013°47'1120.4
2018-Jun-14 04:58N 40°27' E 013°34'4 0.1
2018-Jun-12 19:38N 40°29' E 013°39'320.1
2018-Jun-12 19:29N 40°31' E 013°43'1020.2
2018-Jun-12 19:00N 40°35' E 013°54'1020.0
2018-Jun-12 18:30N 40°40' E 014°06'1019.8
2018-Jun-12 18:01N 40°47' E 014°15'4 7.4
2018-Jun-12 17:29N 40°50' E 014°16'0 0.0
2018-Jun-12 17:01N 40°50' E 014°16'0 0.0
2018-Jun-12 16:31N 40°50' E 014°16'0 0.0
2018-Jun-12 16:00N 40°50' E 014°16'0 0.0
2018-Jun-12 15:30N 40°50' E 014°16'0 0.0
2018-Jun-12 15:00N 40°50' E 014°16'0 0.0
2018-Jun-12 14:31N 40°50' E 014°16'0 0.0
2018-Jun-12 14:01N 40°50' E 014°16'0 0.0
2018-Jun-12 13:31N 40°50' E 014°16'0 0.0
2018-Jun-12 13:01N 40°50' E 014°16'0 0.0
2018-Jun-12 12:30N 40°50' E 014°16'0 0.0
2018-Jun-12 12:01N 40°50' E 014°16'0 0.0
2018-Jun-12 11:31N 40°50' E 014°16'0 0.0
2018-Jun-12 11:00N 40°50' E 014°16'0 0.0
2018-Jun-12 10:31N 40°50' E 014°16'0 0.0
2018-Jun-12 10:00N 40°50' E 014°16'0 0.0
2018-Jun-12 09:31N 40°50' E 014°16'0 0.0
2018-Jun-12 09:00N 40°50' E 014°16'0 0.0
2018-Jun-12 08:31N 40°50' E 014°16'0 0.0
2018-Jun-12 08:00N 40°50' E 014°16'0 0.0
2018-Jun-12 07:31N 40°50' E 014°16'0 0.3
2018-Jun-12 07:01N 40°50' E 014°16'713.9
2018-Jun-12 06:30N 40°44' E 014°12'1020.1
2018-Jun-12 06:00N 40°38' E 014°02'1019.9
2018-Jun-12 05:30N 40°33' E 013°50'1120.1
2018-Jun-12 04:59N 40°29' E 013°37'1020.3
2018-Jun-12 04:29N 40°24' E 013°26'1020.3
2018-Jun-12 04:00N 40°20' E 013°14'1020.4
2018-Jun-12 03:30N 40°16' E 013°02'2520.3
2018-Jun-12 02:16N 40°05' E 012°32'  
2018-Jun-09 20:17N 38°24' E 012°45'518.7
2018-Jun-09 20:00N 38°23' E 012°51'918.7
2018-Jun-09 19:30N 38°21' E 013°03'918.5
2018-Jun-09 19:00N 38°19' E 013°14'917.2
2018-Jun-09 18:30N 38°14' E 013°23'713.9
2018-Jun-09 18:01N 38°07' E 013°23'1 2.1
2018-Jun-09 17:30N 38°08' E 013°22'0 0.0
2018-Jun-09 17:01N 38°08' E 013°22'0 0.0
2018-Jun-09 16:31N 38°08' E 013°22'0 0.0
2018-Jun-09 16:00N 38°08' E 013°22'0 0.0
2018-Jun-09 14:59N 38°08' E 013°22'0 0.0
2018-Jun-09 14:31N 38°08' E 013°22'0 0.0
2018-Jun-09 14:01N 38°08' E 013°22'0 0.0
2018-Jun-09 13:31N 38°08' E 013°22'0 0.0
2018-Jun-09 13:00N 38°08' E 013°22'0 0.0
2018-Jun-09 12:30N 38°08' E 013°22'0 0.0
2018-Jun-09 12:01N 38°08' E 013°22'0 0.0
2018-Jun-09 11:31N 38°08' E 013°22'0 0.0
2018-Jun-09 11:01N 38°08' E 013°22'0 0.0
2018-Jun-09 10:30N 38°08' E 013°22'0 0.0
2018-Jun-09 10:01N 38°08' E 013°22'0 0.0
2018-Jun-09 09:31N 38°08' E 013°22'0 0.0
2018-Jun-09 09:01N 38°08' E 013°22'0 0.0
2018-Jun-09 08:30N 38°08' E 013°22'0 0.0
2018-Jun-09 08:00N 38°08' E 013°22'0 0.0
2018-Jun-09 07:31N 38°08' E 013°22'0 0.0
2018-Jun-09 07:01N 38°08' E 013°22'0 0.0
2018-Jun-09 06:31N 38°08' E 013°22'0 0.3
2018-Jun-09 06:01N 38°08' E 013°22'3 6.2
2018-Jun-09 05:30N 38°10' E 013°24'917.6
2018-Jun-09 05:00N 38°19' E 013°20'918.6
2018-Jun-09 04:30N 38°22' E 013°09'918.7
2018-Jun-09 04:00N 38°24' E 012°58'127 3.9
2018-Jun-07 19:33N 40°28' E 013°35'120.1
2018-Jun-07 19:30N 40°28' E 013°36'1020.0
2018-Jun-07 19:00N 40°32' E 013°48'1019.9
2018-Jun-07 18:31N 40°37' E 013°59'1020.1
2018-Jun-07 18:00N 40°43' E 014°10'917.7
2018-Jun-07 17:31N 40°50' E 014°17'1 1.8
2018-Jun-07 17:00N 40°50' E 014°16'0 0.0
2018-Jun-07 16:31N 40°50' E 014°16'0 0.0
2018-Jun-07 16:00N 40°50' E 014°16'0 0.0
2018-Jun-07 15:30N 40°50' E 014°16'0 0.0
2018-Jun-07 15:00N 40°50' E 014°16'0 0.0
2018-Jun-07 14:30N 40°50' E 014°16'0 0.0
2018-Jun-07 14:00N 40°50' E 014°16'0 0.0
2018-Jun-07 13:30N 40°50' E 014°16'0 0.0
2018-Jun-07 13:00N 40°50' E 014°16'0 0.0
2018-Jun-07 12:30N 40°50' E 014°16'0 0.0
2018-Jun-07 12:00N 40°50' E 014°16'0 0.0
2018-Jun-07 11:30N 40°50' E 014°16'0 0.0
2018-Jun-07 11:00N 40°50' E 014°16'0 0.0
2018-Jun-07 10:30N 40°50' E 014°16'0 0.0
2018-Jun-07 10:00N 40°50' E 014°16'0 0.0
2018-Jun-07 09:31N 40°50' E 014°16'0 0.0
2018-Jun-07 09:00N 40°50' E 014°16'0 0.0
2018-Jun-07 08:31N 40°50' E 014°16'0 0.0
2018-Jun-07 08:00N 40°50' E 014°16'0 0.0
2018-Jun-07 07:30N 40°50' E 014°16'3 5.5
2018-Jun-07 07:01N 40°48' E 014°17'1019.9
2018-Jun-07 06:30N 40°40' E 014°08'1019.5
2018-Jun-07 06:00N 40°36' E 013°57'1019.7
2018-Jun-07 05:31N 40°31' E 013°45'1019.7
2018-Jun-07 05:01N 40°27' E 013°33'3019.6
2018-Jun-07 03:28N 40°15' E 012°57'3419.5
2018-Jun-07 01:43N 39°60' E 012°17'  

Dump ship's entire track history